Rickmers Seoul — V7EI5 — position and weather

sailwx.info

Track history (hours):
 
Tides and Currents Weather Stations Pressure Air Temp Water Temp Dewpoint Dewpoint Depression Visibility Wind Speed Wind Dir Waves Ship Positions

Rickmers Seoul

Last reported at 2016-May-19 22:33 UTC. Time now 2016-May-31 14:16 UTC.
Position N 44°44' E 012°58'.
Warning: this ship's position is 11 days out of date.

Length 192.9 m; beam 27.8 m; draft 11.2 m.

Type: Ship (hazmat cat B). MMSI: 538001809.

Date/timePositionNaut miles runAvg speedWind from/ knotsBaromVisibWave heightAir tempDewpointWater temp
2016-May-19 22:33N 44°44' E 012°58'1414.4
2016-May-19 21:34N 44°57' E 012°49'1413.5
2016-May-19 20:33N 45°09' E 012°38'1313.1
2016-May-19 19:33N 45°18' E 012°25'9 8.7
2016-May-19 18:33N 45°23' E 012°16'4 3.9
2016-May-19 17:32N 45°28' E 012°15'0 0.0
2016-May-19 16:32N 45°28' E 012°15'0 0.0
2016-May-19 15:32N 45°28' E 012°15'0 0.0
2016-May-19 14:32N 45°28' E 012°15'0 0.0
2016-May-19 13:32N 45°28' E 012°15'0 0.0
2016-May-19 12:32N 45°28' E 012°15'0 0.0
2016-May-19 11:32N 45°28' E 012°15'0 0.0
2016-May-19 10:32N 45°28' E 012°15'0 0.0
2016-May-19 09:32N 45°28' E 012°15'0 0.0
2016-May-19 08:32N 45°28' E 012°15'0 0.0
2016-May-19 07:32N 45°28' E 012°15'0 0.0
2016-May-19 06:32N 45°28' E 012°15'0 0.0
2016-May-19 05:32N 45°28' E 012°15'0 0.0
2016-May-19 04:32N 45°28' E 012°15'0 0.0
2016-May-19 03:32N 45°28' E 012°15'0 0.0
2016-May-19 02:29N 45°28' E 012°15'0 0.0
2016-May-19 01:32N 45°28' E 012°15'0 0.0
2016-May-19 00:32N 45°28' E 012°15'0 0.0
2016-May-18 23:32N 45°28' E 012°15'0 0.0
2016-May-18 22:32N 45°28' E 012°15'0 0.0
2016-May-18 21:32N 45°28' E 012°15'0 0.0
2016-May-18 20:29N 45°28' E 012°15'0 0.0
2016-May-18 19:23N 45°28' E 012°15'0 0.0
2016-May-18 18:32N 45°28' E 012°15'0 0.0
2016-May-18 17:32N 45°28' E 012°15'0 0.0
2016-May-18 16:32N 45°28' E 012°15'0 0.0
2016-May-18 15:32N 45°28' E 012°15'0 0.0
2016-May-18 14:32N 45°28' E 012°15'0 0.0
2016-May-18 13:32N 45°28' E 012°15'0 0.0
2016-May-18 12:32N 45°28' E 012°15'0 0.0
2016-May-18 11:32N 45°28' E 012°15'0 0.0
2016-May-18 10:32N 45°28' E 012°15'0 0.0
2016-May-18 09:32N 45°28' E 012°15'0 0.0
2016-May-18 08:32N 45°28' E 012°15'0 0.0
2016-May-18 07:32N 45°28' E 012°15'0 0.0
2016-May-18 06:32N 45°28' E 012°15'0 0.2
2016-May-18 05:34N 45°27' E 012°16'7 6.8
2016-May-18 04:34N 45°21' E 012°17'9 9.1
2016-May-18 03:34N 45°18' E 012°29'1313.1
2016-May-18 02:33N 45°10' E 012°44'1413.7
2016-May-18 01:33N 44°58' E 012°54'1414.0
2016-May-18 00:33N 44°45' E 013°02'1513.9
2016-May-17 23:29N 44°31' E 013°09'1314.1
2016-May-17 22:33N 44°19' E 013°14'40810.2
2016-May-16 06:32N 37°50' E 015°58'1313.6
2016-May-16 05:34N 37°52' E 015°42'1211.8
2016-May-16 04:33N 38°02' E 015°35'1413.6
2016-May-16 03:33N 38°15' E 015°39'8 8.0
2016-May-16 02:33N 38°23' E 015°36'1111.0
2016-May-16 01:33N 38°31' E 015°26'1413.1
2016-May-16 00:31N 38°40' E 015°14'1313.2
2016-May-15 23:31N 38°49' E 015°01'41413.8
2016-May-14 17:30N 44°06' E 009°05'1314.0
2016-May-14 16:34N 44°18' E 008°59'7 7.4
2016-May-14 15:33N 44°24' E 008°53'0 0.0
2016-May-14 14:29N 44°24' E 008°53'0 0.0
2016-May-14 13:29N 44°24' E 008°53'0 0.0
2016-May-14 12:29N 44°24' E 008°53'0 0.0
2016-May-14 11:32N 44°24' E 008°53'0 0.0
2016-May-14 10:32N 44°24' E 008°53'0 0.0
2016-May-14 09:32N 44°24' E 008°53'0 0.0
2016-May-14 08:32N 44°24' E 008°53'0 0.0
2016-May-14 07:32N 44°24' E 008°53'0 0.0
2016-May-14 06:32N 44°24' E 008°53'0 0.0
2016-May-14 05:32N 44°24' E 008°53'0 0.0
2016-May-14 04:32N 44°24' E 008°53'0 0.0
2016-May-14 03:32N 44°24' E 008°53'0 0.0
2016-May-14 02:29N 44°24' E 008°53'0 0.0
2016-May-14 01:29N 44°24' E 008°53'0 0.0
2016-May-14 00:32N 44°24' E 008°53'0 0.0
2016-May-13 23:29N 44°24' E 008°53'0 0.0
2016-May-13 22:29N 44°24' E 008°53'0 0.0
2016-May-13 21:29N 44°24' E 008°53'0 0.0
2016-May-13 20:32N 44°24' E 008°53'0 0.0
2016-May-13 19:32N 44°24' E 008°53'0 0.0
2016-May-13 18:32N 44°24' E 008°53'0 0.0
2016-May-13 17:32N 44°24' E 008°53'0 0.0
2016-May-13 16:32N 44°24' E 008°53'0 0.0
2016-May-13 15:32N 44°24' E 008°53'0 0.0
2016-May-13 14:32N 44°24' E 008°53'0 0.0
2016-May-13 13:32N 44°24' E 008°53'0 0.0
2016-May-13 12:32N 44°24' E 008°53'0 0.0
2016-May-13 11:29N 44°24' E 008°53'0 0.0
2016-May-13 10:29N 44°24' E 008°53'0 0.0
2016-May-13 09:26N 44°24' E 008°53'0 0.0
2016-May-13 08:29N 44°24' E 008°53'0 0.0
2016-May-13 07:29N 44°24' E 008°53'0 0.0
2016-May-13 06:32N 44°24' E 008°53'0 0.1
2016-May-13 05:33N 44°24' E 008°54'7 6.7
2016-May-13 04:33N 44°18' E 008°56'1615.9
2016-May-13 03:33N 44°07' E 008°39'6215.5
2016-May-12 23:33N 43°25' E 007°36'12015.0
2016-May-12 15:32N 42°04' E 005°35'11714.7
2016-May-12 07:32N 40°45' E 003°39'1212.6
2016-May-12 06:33N 40°37' E 003°27'1211.9
2016-May-12 05:33N 40°29' E 003°15'1211.8
2016-May-12 04:33N 40°21' E 003°04'1211.8
2016-May-12 03:33N 40°13' E 002°52'1212.1
2016-May-12 02:33N 40°05' E 002°40'1312.9
2016-May-12 01:33N 39°56' E 002°28'1313.0
2016-May-12 00:33N 39°48' E 002°15'1313.0
2016-May-11 23:32N 39°39' E 002°03'1313.3
2016-May-11 22:33N 39°30' E 001°50'1312.8
2016-May-11 21:33N 39°21' E 001°38'13113.0
2016-May-11 11:28N 37°45' W 000°15'1314.0
2016-May-11 10:33N 37°35' W 000°25'2013.2
2016-May-11 09:04N 37°21' W 000°43'23513.4
2016-May-10 15:33N 35°59' W 005°18'  
Track history (hours):
 
Tides and Currents Weather Stations Pressure Air Temp Water Temp Dewpoint Dewpoint Depression Visibility Wind Speed Wind Dir Waves Ship Positions

Rickmers Seoul

Last reported at 2016-May-19 22:33 UTC. Time now 2016-May-31 14:16 UTC.
Position N 44°44' E 012°58'.
Warning: this ship's position is 11 days out of date.

Length 192.9 m; beam 27.8 m; draft 11.2 m.

Type: Ship (hazmat cat B). MMSI: 538001809.

Date/timePositionNaut miles runAvg speedWind from/ knotsBaromVisibWave heightAir tempDewpointWater temp
2016-May-19 22:33N 44°44' E 012°58'1414.4
2016-May-19 21:34N 44°57' E 012°49'1413.5
2016-May-19 20:33N 45°09' E 012°38'1313.1
2016-May-19 19:33N 45°18' E 012°25'9 8.7
2016-May-19 18:33N 45°23' E 012°16'4 3.9
2016-May-19 17:32N 45°28' E 012°15'0 0.0
2016-May-19 16:32N 45°28' E 012°15'0 0.0
2016-May-19 15:32N 45°28' E 012°15'0 0.0
2016-May-19 14:32N 45°28' E 012°15'0 0.0
2016-May-19 13:32N 45°28' E 012°15'0 0.0
2016-May-19 12:32N 45°28' E 012°15'0 0.0
2016-May-19 11:32N 45°28' E 012°15'0 0.0
2016-May-19 10:32N 45°28' E 012°15'0 0.0
2016-May-19 09:32N 45°28' E 012°15'0 0.0
2016-May-19 08:32N 45°28' E 012°15'0 0.0
2016-May-19 07:32N 45°28' E 012°15'0 0.0
2016-May-19 06:32N 45°28' E 012°15'0 0.0
2016-May-19 05:32N 45°28' E 012°15'0 0.0
2016-May-19 04:32N 45°28' E 012°15'0 0.0
2016-May-19 03:32N 45°28' E 012°15'0 0.0
2016-May-19 02:29N 45°28' E 012°15'0 0.0
2016-May-19 01:32N 45°28' E 012°15'0 0.0
2016-May-19 00:32N 45°28' E 012°15'0 0.0
2016-May-18 23:32N 45°28' E 012°15'0 0.0
2016-May-18 22:32N 45°28' E 012°15'0 0.0
2016-May-18 21:32N 45°28' E 012°15'0 0.0
2016-May-18 20:29N 45°28' E 012°15'0 0.0
2016-May-18 19:23N 45°28' E 012°15'0 0.0
2016-May-18 18:32N 45°28' E 012°15'0 0.0
2016-May-18 17:32N 45°28' E 012°15'0 0.0
2016-May-18 16:32N 45°28' E 012°15'0 0.0
2016-May-18 15:32N 45°28' E 012°15'0 0.0
2016-May-18 14:32N 45°28' E 012°15'0 0.0
2016-May-18 13:32N 45°28' E 012°15'0 0.0
2016-May-18 12:32N 45°28' E 012°15'0 0.0
2016-May-18 11:32N 45°28' E 012°15'0 0.0
2016-May-18 10:32N 45°28' E 012°15'0 0.0
2016-May-18 09:32N 45°28' E 012°15'0 0.0
2016-May-18 08:32N 45°28' E 012°15'0 0.0
2016-May-18 07:32N 45°28' E 012°15'0 0.0
2016-May-18 06:32N 45°28' E 012°15'0 0.2
2016-May-18 05:34N 45°27' E 012°16'7 6.8
2016-May-18 04:34N 45°21' E 012°17'9 9.1
2016-May-18 03:34N 45°18' E 012°29'1313.1
2016-May-18 02:33N 45°10' E 012°44'1413.7
2016-May-18 01:33N 44°58' E 012°54'1414.0
2016-May-18 00:33N 44°45' E 013°02'1513.9
2016-May-17 23:29N 44°31' E 013°09'1314.1
2016-May-17 22:33N 44°19' E 013°14'40810.2
2016-May-16 06:32N 37°50' E 015°58'1313.6
2016-May-16 05:34N 37°52' E 015°42'1211.8
2016-May-16 04:33N 38°02' E 015°35'1413.6
2016-May-16 03:33N 38°15' E 015°39'8 8.0
2016-May-16 02:33N 38°23' E 015°36'1111.0
2016-May-16 01:33N 38°31' E 015°26'1413.1
2016-May-16 00:31N 38°40' E 015°14'1313.2
2016-May-15 23:31N 38°49' E 015°01'41413.8
2016-May-14 17:30N 44°06' E 009°05'1314.0
2016-May-14 16:34N 44°18' E 008°59'7 7.4
2016-May-14 15:33N 44°24' E 008°53'0 0.0
2016-May-14 14:29N 44°24' E 008°53'0 0.0
2016-May-14 13:29N 44°24' E 008°53'0 0.0
2016-May-14 12:29N 44°24' E 008°53'0 0.0
2016-May-14 11:32N 44°24' E 008°53'0 0.0
2016-May-14 10:32N 44°24' E 008°53'0 0.0
2016-May-14 09:32N 44°24' E 008°53'0 0.0
2016-May-14 08:32N 44°24' E 008°53'0 0.0
2016-May-14 07:32N 44°24' E 008°53'0 0.0
2016-May-14 06:32N 44°24' E 008°53'0 0.0
2016-May-14 05:32N 44°24' E 008°53'0 0.0
2016-May-14 04:32N 44°24' E 008°53'0 0.0
2016-May-14 03:32N 44°24' E 008°53'0 0.0
2016-May-14 02:29N 44°24' E 008°53'0 0.0
2016-May-14 01:29N 44°24' E 008°53'0 0.0
2016-May-14 00:32N 44°24' E 008°53'0 0.0
2016-May-13 23:29N 44°24' E 008°53'0 0.0
2016-May-13 22:29N 44°24' E 008°53'0 0.0
2016-May-13 21:29N 44°24' E 008°53'0 0.0
2016-May-13 20:32N 44°24' E 008°53'0 0.0
2016-May-13 19:32N 44°24' E 008°53'0 0.0
2016-May-13 18:32N 44°24' E 008°53'0 0.0
2016-May-13 17:32N 44°24' E 008°53'0 0.0
2016-May-13 16:32N 44°24' E 008°53'0 0.0
2016-May-13 15:32N 44°24' E 008°53'0 0.0
2016-May-13 14:32N 44°24' E 008°53'0 0.0
2016-May-13 13:32N 44°24' E 008°53'0 0.0
2016-May-13 12:32N 44°24' E 008°53'0 0.0
2016-May-13 11:29N 44°24' E 008°53'0 0.0
2016-May-13 10:29N 44°24' E 008°53'0 0.0
2016-May-13 09:26N 44°24' E 008°53'0 0.0
2016-May-13 08:29N 44°24' E 008°53'0 0.0
2016-May-13 07:29N 44°24' E 008°53'0 0.0
2016-May-13 06:32N 44°24' E 008°53'0 0.1
2016-May-13 05:33N 44°24' E 008°54'7 6.7
2016-May-13 04:33N 44°18' E 008°56'1615.9
2016-May-13 03:33N 44°07' E 008°39'6215.5
2016-May-12 23:33N 43°25' E 007°36'12015.0
2016-May-12 15:32N 42°04' E 005°35'11714.7
2016-May-12 07:32N 40°45' E 003°39'1212.6
2016-May-12 06:33N 40°37' E 003°27'1211.9
2016-May-12 05:33N 40°29' E 003°15'1211.8
2016-May-12 04:33N 40°21' E 003°04'1211.8
2016-May-12 03:33N 40°13' E 002°52'1212.1
2016-May-12 02:33N 40°05' E 002°40'1312.9
2016-May-12 01:33N 39°56' E 002°28'1313.0
2016-May-12 00:33N 39°48' E 002°15'1313.0
2016-May-11 23:32N 39°39' E 002°03'1313.3
2016-May-11 22:33N 39°30' E 001°50'1312.8
2016-May-11 21:33N 39°21' E 001°38'13113.0
2016-May-11 11:28N 37°45' W 000°15'1314.0
2016-May-11 10:33N 37°35' W 000°25'2013.2
2016-May-11 09:04N 37°21' W 000°43'23513.4
2016-May-10 15:33N 35°59' W 005°18'  

Dump ship's entire track history